Portada
METAR-TAF:

METAR-TAF

Aeroports :

Vestmannaeyjar, Islàndia

latitud: 63-24N, longitud: 020-17W, altitud: 118 m

Observació

L'informe es va fer fa 1 hora i 7 minuts, a les 13:00 UTC
Vent 15 kt del Oest
Temperatura 6°C
Humitat 81%
Pressió 1037 hPa
Visibilitat 10 km o més
Escasses núvols a una alçada de 1300 ft
Cel ennuvolat a una alçada de 2000 ft
pluja

METAR: BIVM 301300Z 27015KT 9999 -RA FEW013 BKN020 06/03 Q1037

Hora: 14:07 (14:07 UTC)

Pronòstic

L'informe es va fer fa 1 hora i 0 minuts, a les 13:07 UTC
Pronòstic vàlid del 30 a les 14 UTC al 30 a les 23 UTC
Vent 22 kt del Oest
Visibilitat 10 km o més
Cel cobert a una alçada de 3000 ft
Temporalment
l' 30 a les 14 UTC al 30 a les 23 UTC
Visibilitat: 5000 m
Cel cobert a una alçada de 1000 ft
pluja, plugim, boirina

TAF: BIVM 301307Z 3014/3023 27022KT 9999 OVC030 TEMPO 3014/3023 5000 RADZ BR OVC010

Observacions i pronòstics meteorològics de més de 4000 aeroports (METAR i TAF).

Les estacions disponibles són els punts grocs i vermells al mapa.

Posi el ratolí al punt desitjat per veure el nom de l'estació.

Feu clic per veure les observacions i els pronòstics meteorològics.

Per canviar el mapa: feu clic els botons verds amb una creu de color negre per apropar; al botó verd amb un guió per allunyar la imatge; o en les fletxes verdes per a mapes adjacents.


METAR-TAF: